Terminal Aerodrome Forecast
Issued by NWS Mobile, AL

Home | Current Version | Previous Version | Text Only | Print | Product List | Glossary On
Versions: 1 2 3 4 5 6 7 8 9 10 11 12 13 14 15 16 17 18 19 20 21 22 23 24 25 26 27 28 29 30 31 32 33 34 35 36 37 38
000
FTUS44 KMOB 272331
TAFMOB
TAF
KMOB 272331Z 2800/2824 07005KT 6SM -RA VCSH SCT070 OVC200
     FM280200 07014G21KT P6SM TSRA OVC025CB
     FM280500 05012KT 5SM TSRA OVC019CB
      TEMPO 2809/2813 P6SM -TSRA OVC007CB
     FM281800 13013KT P6SM OVC050 PROB30 2818/2824 4SM TSRA
      BKN050CB=

USA.gov is the U.S. government's official web portal to all federal, state and local government web resources and services.